sensor_id;sensor_type;location;lat;lon;timestamp;P1;durP1;ratioP1;P2;durP2;ratioP2
35324;SDS011;35135;47.510;19.036;2023-07-13T00:00:27;8.40;;;3.85;;
35324;SDS011;35135;47.510;19.036;2023-07-13T00:02:53;8.43;;;4.20;;
35324;SDS011;35135;47.510;19.036;2023-07-13T00:05:22;7.50;;;3.95;;
35324;SDS011;35135;47.510;19.036;2023-07-13T00:07:49;6.95;;;3.63;;
35324;SDS011;35135;47.510;19.036;2023-07-13T00:10:16;7.55;;;3.65;;
35324;SDS011;35135;47.510;19.036;2023-07-13T00:12:43;4.75;;;2.92;;
35324;SDS011;35135;47.510;19.036;2023-07-13T00:15:14;4.85;;;2.50;;
35324;SDS011;35135;47.510;19.036;2023-07-13T00:17:43;3.58;;;2.15;;
35324;SDS011;35135;47.510;19.036;2023-07-13T00:20:12;4.75;;;2.88;;
35324;SDS011;35135;47.510;19.036;2023-07-13T00:22:38;3.22;;;2.72;;
35324;SDS011;35135;47.510;19.036;2023-07-13T00:25:04;5.88;;;2.88;;
35324;SDS011;35135;47.510;19.036;2023-07-13T00:27:30;4.53;;;2.60;;
35324;SDS011;35135;47.510;19.036;2023-07-13T00:29:57;6.53;;;2.95;;
35324;SDS011;35135;47.510;19.036;2023-07-13T00:32:23;5.53;;;3.10;;
35324;SDS011;35135;47.510;19.036;2023-07-13T00:34:52;5.93;;;2.47;;
35324;SDS011;35135;47.510;19.036;2023-07-13T00:37:18;6.53;;;2.90;;
35324;SDS011;35135;47.510;19.036;2023-07-13T00:39:44;5.43;;;2.85;;
35324;SDS011;35135;47.510;19.036;2023-07-13T00:42:10;5.40;;;2.58;;
35324;SDS011;35135;47.510;19.036;2023-07-13T00:44:36;5.20;;;2.92;;
35324;SDS011;35135;47.510;19.036;2023-07-13T00:47:02;7.45;;;2.83;;
35324;SDS011;35135;47.510;19.036;2023-07-13T00:49:29;5.35;;;2.65;;
35324;SDS011;35135;47.510;19.036;2023-07-13T00:52:02;5.50;;;2.55;;
35324;SDS011;35135;47.510;19.036;2023-07-13T00:54:32;5.88;;;2.97;;
35324;SDS011;35135;47.510;19.036;2023-07-13T00:57:06;5.60;;;2.60;;
35324;SDS011;35135;47.510;19.036;2023-07-13T00:59:36;3.83;;;2.65;;
35324;SDS011;35135;47.510;19.036;2023-07-13T01:02:05;7.78;;;2.78;;
35324;SDS011;35135;47.510;19.036;2023-07-13T01:04:30;4.78;;;2.55;;
35324;SDS011;35135;47.510;19.036;2023-07-13T01:06:56;6.53;;;2.58;;
35324;SDS011;35135;47.510;19.036;2023-07-13T01:09:23;4.82;;;2.78;;
35324;SDS011;35135;47.510;19.036;2023-07-13T01:11:50;4.13;;;2.42;;
35324;SDS011;35135;47.510;19.036;2023-07-13T01:14:16;4.88;;;2.55;;
35324;SDS011;35135;47.510;19.036;2023-07-13T01:16:42;5.13;;;2.70;;
35324;SDS011;35135;47.510;19.036;2023-07-13T01:19:52;3.75;;;2.60;;
35324;SDS011;35135;47.510;19.036;2023-07-13T01:22:05;4.05;;;2.30;;
35324;SDS011;35135;47.510;19.036;2023-07-13T01:24:34;3.72;;;2.10;;
35324;SDS011;35135;47.510;19.036;2023-07-13T01:27:01;4.93;;;2.38;;
35324;SDS011;35135;47.510;19.036;2023-07-13T01:29:28;2.92;;;2.00;;
35324;SDS011;35135;47.510;19.036;2023-07-13T01:31:53;5.70;;;2.33;;
35324;SDS011;35135;47.510;19.036;2023-07-13T01:34:19;3.42;;;2.05;;
35324;SDS011;35135;47.510;19.036;2023-07-13T01:36:44;4.53;;;2.33;;
35324;SDS011;35135;47.510;19.036;2023-07-13T01:39:10;3.83;;;2.50;;
35324;SDS011;35135;47.510;19.036;2023-07-13T01:41:36;3.65;;;2.40;;
35324;SDS011;35135;47.510;19.036;2023-07-13T01:44:01;5.72;;;2.10;;
35324;SDS011;35135;47.510;19.036;2023-07-13T01:46:27;5.15;;;2.33;;
35324;SDS011;35135;47.510;19.036;2023-07-13T01:48:53;5.35;;;2.28;;
35324;SDS011;35135;47.510;19.036;2023-07-13T01:51:19;5.75;;;2.55;;
35324;SDS011;35135;47.510;19.036;2023-07-13T01:53:45;3.50;;;2.08;;
35324;SDS011;35135;47.510;19.036;2023-07-13T01:56:11;6.53;;;2.97;;
35324;SDS011;35135;47.510;19.036;2023-07-13T01:58:37;5.47;;;2.20;;
35324;SDS011;35135;47.510;19.036;2023-07-13T02:01:02;5.57;;;2.10;;
35324;SDS011;35135;47.510;19.036;2023-07-13T02:03:28;6.28;;;2.42;;
35324;SDS011;35135;47.510;19.036;2023-07-13T02:05:54;4.72;;;2.42;;
35324;SDS011;35135;47.510;19.036;2023-07-13T02:08:19;4.53;;;2.10;;
35324;SDS011;35135;47.510;19.036;2023-07-13T02:10:45;5.10;;;2.20;;
35324;SDS011;35135;47.510;19.036;2023-07-13T02:13:11;3.25;;;2.03;;
35324;SDS011;35135;47.510;19.036;2023-07-13T02:15:40;4.20;;;2.33;;
35324;SDS011;35135;47.510;19.036;2023-07-13T02:18:06;4.53;;;2.28;;
35324;SDS011;35135;47.510;19.036;2023-07-13T02:20:32;4.40;;;2.45;;
35324;SDS011;35135;47.510;19.036;2023-07-13T02:22:57;3.72;;;2.20;;
35324;SDS011;35135;47.510;19.036;2023-07-13T02:25:23;4.97;;;2.33;;
35324;SDS011;35135;47.510;19.036;2023-07-13T02:27:50;5.05;;;2.05;;
35324;SDS011;35135;47.510;19.036;2023-07-13T02:30:15;4.43;;;2.63;;
35324;SDS011;35135;47.510;19.036;2023-07-13T02:32:41;3.95;;;2.17;;
35324;SDS011;35135;47.510;19.036;2023-07-13T02:35:08;4.53;;;2.42;;
35324;SDS011;35135;47.510;19.036;2023-07-13T02:37:34;3.38;;;2.28;;
35324;SDS011;35135;47.510;19.036;2023-07-13T02:40:01;5.68;;;2.28;;
35324;SDS011;35135;47.510;19.036;2023-07-13T02:42:33;5.15;;;2.47;;
35324;SDS011;35135;47.510;19.036;2023-07-13T02:44:59;4.60;;;2.00;;
35324;SDS011;35135;47.510;19.036;2023-07-13T02:47:24;2.63;;;1.90;;
35324;SDS011;35135;47.510;19.036;2023-07-13T02:49:51;4.25;;;2.53;;
35324;SDS011;35135;47.510;19.036;2023-07-13T02:52:17;8.60;;;2.58;;
35324;SDS011;35135;47.510;19.036;2023-07-13T02:54:43;7.07;;;2.78;;
35324;SDS011;35135;47.510;19.036;2023-07-13T02:57:08;4.70;;;2.45;;
35324;SDS011;35135;47.510;19.036;2023-07-13T02:59:34;5.65;;;2.40;;
35324;SDS011;35135;47.510;19.036;2023-07-13T03:02:01;4.80;;;2.25;;
35324;SDS011;35135;47.510;19.036;2023-07-13T03:04:27;4.38;;;2.30;;
35324;SDS011;35135;47.510;19.036;2023-07-13T03:06:53;5.97;;;2.72;;
35324;SDS011;35135;47.510;19.036;2023-07-13T03:09:22;3.97;;;2.70;;
35324;SDS011;35135;47.510;19.036;2023-07-13T03:11:48;5.47;;;2.70;;
35324;SDS011;35135;47.510;19.036;2023-07-13T03:14:14;4.95;;;2.72;;
35324;SDS011;35135;47.510;19.036;2023-07-13T03:16:39;4.82;;;2.55;;
35324;SDS011;35135;47.510;19.036;2023-07-13T03:19:05;4.40;;;3.00;;
35324;SDS011;35135;47.510;19.036;2023-07-13T03:21:31;5.65;;;2.47;;
35324;SDS011;35135;47.510;19.036;2023-07-13T03:23:56;4.22;;;2.92;;
35324;SDS011;35135;47.510;19.036;2023-07-13T03:26:22;5.43;;;3.00;;
35324;SDS011;35135;47.510;19.036;2023-07-13T03:28:48;4.10;;;2.28;;
35324;SDS011;35135;47.510;19.036;2023-07-13T03:31:16;4.18;;;2.58;;
35324;SDS011;35135;47.510;19.036;2023-07-13T03:33:46;4.30;;;2.33;;
35324;SDS011;35135;47.510;19.036;2023-07-13T03:36:14;4.93;;;2.65;;
35324;SDS011;35135;47.510;19.036;2023-07-13T03:38:44;5.13;;;2.90;;
35324;SDS011;35135;47.510;19.036;2023-07-13T03:41:14;6.88;;;2.50;;
35324;SDS011;35135;47.510;19.036;2023-07-13T03:43:40;3.38;;;2.05;;
35324;SDS011;35135;47.510;19.036;2023-07-13T03:46:06;7.03;;;2.40;;
35324;SDS011;35135;47.510;19.036;2023-07-13T03:48:32;4.57;;;2.58;;
35324;SDS011;35135;47.510;19.036;2023-07-13T03:50:58;7.75;;;2.50;;
35324;SDS011;35135;47.510;19.036;2023-07-13T03:53:23;3.38;;;1.92;;
35324;SDS011;35135;47.510;19.036;2023-07-13T03:55:49;4.70;;;2.03;;
35324;SDS011;35135;47.510;19.036;2023-07-13T03:58:26;3.78;;;2.30;;
35324;SDS011;35135;47.510;19.036;2023-07-13T04:00:55;3.67;;;2.20;;
35324;SDS011;35135;47.510;19.036;2023-07-13T04:03:22;3.65;;;2.17;;
35324;SDS011;35135;47.510;19.036;2023-07-13T04:05:48;3.05;;;1.83;;
35324;SDS011;35135;47.510;19.036;2023-07-13T04:08:15;4.47;;;1.90;;
35324;SDS011;35135;47.510;19.036;2023-07-13T04:10:41;4.65;;;2.97;;
35324;SDS011;35135;47.510;19.036;2023-07-13T04:13:07;4.25;;;2.47;;
35324;SDS011;35135;47.510;19.036;2023-07-13T04:15:33;3.58;;;2.00;;
35324;SDS011;35135;47.510;19.036;2023-07-13T04:17:58;3.08;;;1.95;;
35324;SDS011;35135;47.510;19.036;2023-07-13T04:20:24;3.25;;;2.10;;
35324;SDS011;35135;47.510;19.036;2023-07-13T04:22:51;3.03;;;1.95;;
35324;SDS011;35135;47.510;19.036;2023-07-13T04:25:20;5.38;;;2.13;;
35324;SDS011;35135;47.510;19.036;2023-07-13T04:27:46;3.15;;;1.70;;
35324;SDS011;35135;47.510;19.036;2023-07-13T04:30:12;3.67;;;1.70;;
35324;SDS011;35135;47.510;19.036;2023-07-13T04:32:38;3.65;;;2.22;;
35324;SDS011;35135;47.510;19.036;2023-07-13T04:35:04;4.43;;;2.10;;
35324;SDS011;35135;47.510;19.036;2023-07-13T04:37:30;3.47;;;1.90;;
35324;SDS011;35135;47.510;19.036;2023-07-13T04:39:55;2.88;;;1.77;;
35324;SDS011;35135;47.510;19.036;2023-07-13T04:42:22;4.50;;;2.25;;
35324;SDS011;35135;47.510;19.036;2023-07-13T04:44:51;3.33;;;2.03;;
35324;SDS011;35135;47.510;19.036;2023-07-13T04:47:17;3.35;;;1.90;;
35324;SDS011;35135;47.510;19.036;2023-07-13T04:49:43;2.15;;;1.48;;
35324;SDS011;35135;47.510;19.036;2023-07-13T04:52:10;2.83;;;1.95;;
35324;SDS011;35135;47.510;19.036;2023-07-13T04:54:36;3.63;;;2.00;;
35324;SDS011;35135;47.510;19.036;2023-07-13T04:57:02;4.95;;;2.20;;
35324;SDS011;35135;47.510;19.036;2023-07-13T04:59:31;3.55;;;2.20;;
35324;SDS011;35135;47.510;19.036;2023-07-13T05:01:59;4.82;;;2.10;;
35324;SDS011;35135;47.510;19.036;2023-07-13T05:04:26;4.60;;;2.10;;
35324;SDS011;35135;47.510;19.036;2023-07-13T05:06:52;2.97;;;2.00;;
35324;SDS011;35135;47.510;19.036;2023-07-13T05:09:17;5.15;;;1.90;;
35324;SDS011;35135;47.510;19.036;2023-07-13T05:11:43;5.32;;;2.03;;
35324;SDS011;35135;47.510;19.036;2023-07-13T05:14:09;3.47;;;2.13;;
35324;SDS011;35135;47.510;19.036;2023-07-13T05:16:35;2.72;;;1.83;;
35324;SDS011;35135;47.510;19.036;2023-07-13T05:19:01;4.35;;;2.08;;
35324;SDS011;35135;47.510;19.036;2023-07-13T05:21:26;6.05;;;2.67;;
35324;SDS011;35135;47.510;19.036;2023-07-13T05:23:52;6.90;;;2.70;;
35324;SDS011;35135;47.510;19.036;2023-07-13T05:26:18;13.73;;;6.03;;
35324;SDS011;35135;47.510;19.036;2023-07-13T05:28:45;22.13;;;7.18;;
35324;SDS011;35135;47.510;19.036;2023-07-13T05:31:11;24.35;;;8.60;;
35324;SDS011;35135;47.510;19.036;2023-07-13T05:33:37;20.13;;;7.18;;
35324;SDS011;35135;47.510;19.036;2023-07-13T05:36:03;7.78;;;4.07;;
35324;SDS011;35135;47.510;19.036;2023-07-13T05:38:29;10.60;;;3.47;;
35324;SDS011;35135;47.510;19.036;2023-07-13T05:40:55;10.23;;;3.78;;
35324;SDS011;35135;47.510;19.036;2023-07-13T05:43:22;7.05;;;3.67;;
35324;SDS011;35135;47.510;19.036;2023-07-13T05:45:48;11.35;;;3.85;;
35324;SDS011;35135;47.510;19.036;2023-07-13T05:48:16;7.20;;;3.33;;
35324;SDS011;35135;47.510;19.036;2023-07-13T05:50:42;8.38;;;2.70;;
35324;SDS011;35135;47.510;19.036;2023-07-13T05:53:07;4.70;;;2.22;;
35324;SDS011;35135;47.510;19.036;2023-07-13T05:55:33;6.25;;;1.80;;
35324;SDS011;35135;47.510;19.036;2023-07-13T05:58:00;4.85;;;1.92;;
35324;SDS011;35135;47.510;19.036;2023-07-13T06:00:26;5.07;;;2.03;;
35324;SDS011;35135;47.510;19.036;2023-07-13T06:02:52;3.38;;;1.80;;
35324;SDS011;35135;47.510;19.036;2023-07-13T06:05:18;4.03;;;1.75;;
35324;SDS011;35135;47.510;19.036;2023-07-13T06:07:44;3.42;;;1.55;;
35324;SDS011;35135;47.510;19.036;2023-07-13T06:10:09;3.83;;;1.65;;
35324;SDS011;35135;47.510;19.036;2023-07-13T06:12:35;3.85;;;1.50;;
35324;SDS011;35135;47.510;19.036;2023-07-13T06:15:01;5.30;;;1.60;;
35324;SDS011;35135;47.510;19.036;2023-07-13T06:17:28;3.83;;;1.75;;
35324;SDS011;35135;47.510;19.036;2023-07-13T06:19:53;4.57;;;1.30;;
35324;SDS011;35135;47.510;19.036;2023-07-13T06:22:19;3.35;;;1.40;;
35324;SDS011;35135;47.510;19.036;2023-07-13T06:24:45;2.97;;;1.67;;
35324;SDS011;35135;47.510;19.036;2023-07-13T06:27:10;3.83;;;1.58;;
35324;SDS011;35135;47.510;19.036;2023-07-13T06:29:36;3.25;;;1.40;;
35324;SDS011;35135;47.510;19.036;2023-07-13T06:32:01;2.53;;;1.27;;
35324;SDS011;35135;47.510;19.036;2023-07-13T06:34:27;3.65;;;1.60;;
35324;SDS011;35135;47.510;19.036;2023-07-13T06:36:53;3.05;;;1.40;;
35324;SDS011;35135;47.510;19.036;2023-07-13T06:39:18;2.72;;;1.50;;
35324;SDS011;35135;47.510;19.036;2023-07-13T06:41:44;1.75;;;1.40;;
35324;SDS011;35135;47.510;19.036;2023-07-13T06:44:10;3.47;;;1.63;;
35324;SDS011;35135;47.510;19.036;2023-07-13T06:46:35;2.10;;;1.23;;
35324;SDS011;35135;47.510;19.036;2023-07-13T06:49:01;3.58;;;1.50;;
35324;SDS011;35135;47.510;19.036;2023-07-13T06:51:27;4.30;;;1.67;;
35324;SDS011;35135;47.510;19.036;2023-07-13T06:53:52;4.05;;;1.85;;
35324;SDS011;35135;47.510;19.036;2023-07-13T06:56:19;2.45;;;1.38;;
35324;SDS011;35135;47.510;19.036;2023-07-13T06:58:45;2.00;;;1.13;;
35324;SDS011;35135;47.510;19.036;2023-07-13T07:01:10;5.00;;;1.45;;
35324;SDS011;35135;47.510;19.036;2023-07-13T07:03:36;4.20;;;1.90;;
35324;SDS011;35135;47.510;19.036;2023-07-13T07:06:05;2.40;;;1.42;;
35324;SDS011;35135;47.510;19.036;2023-07-13T07:08:37;4.45;;;1.52;;
35324;SDS011;35135;47.510;19.036;2023-07-13T07:11:03;2.70;;;1.88;;
35324;SDS011;35135;47.510;19.036;2023-07-13T07:13:29;2.22;;;1.20;;
35324;SDS011;35135;47.510;19.036;2023-07-13T07:15:55;4.35;;;1.60;;
35324;SDS011;35135;47.510;19.036;2023-07-13T07:18:21;3.75;;;1.60;;
35324;SDS011;35135;47.510;19.036;2023-07-13T07:20:48;3.28;;;1.50;;
35324;SDS011;35135;47.510;19.036;2023-07-13T07:23:14;3.17;;;1.38;;
35324;SDS011;35135;47.510;19.036;2023-07-13T07:25:40;2.05;;;1.40;;
35324;SDS011;35135;47.510;19.036;2023-07-13T07:28:08;5.22;;;1.58;;
35324;SDS011;35135;47.510;19.036;2023-07-13T07:30:33;2.08;;;1.13;;
35324;SDS011;35135;47.510;19.036;2023-07-13T07:33:00;3.10;;;1.40;;
35324;SDS011;35135;47.510;19.036;2023-07-13T07:35:26;2.63;;;1.30;;
35324;SDS011;35135;47.510;19.036;2023-07-13T07:37:52;2.55;;;1.48;;
35324;SDS011;35135;47.510;19.036;2023-07-13T07:40:18;3.30;;;1.88;;
35324;SDS011;35135;47.510;19.036;2023-07-13T07:42:44;3.55;;;1.70;;
35324;SDS011;35135;47.510;19.036;2023-07-13T07:45:09;4.22;;;2.15;;
35324;SDS011;35135;47.510;19.036;2023-07-13T07:47:36;3.45;;;1.60;;
35324;SDS011;35135;47.510;19.036;2023-07-13T07:50:02;2.95;;;1.65;;
35324;SDS011;35135;47.510;19.036;2023-07-13T07:52:28;3.33;;;1.70;;
35324;SDS011;35135;47.510;19.036;2023-07-13T07:54:54;2.97;;;1.58;;
35324;SDS011;35135;47.510;19.036;2023-07-13T07:57:20;2.90;;;1.75;;
35324;SDS011;35135;47.510;19.036;2023-07-13T07:59:46;3.28;;;1.50;;
35324;SDS011;35135;47.510;19.036;2023-07-13T08:02:11;4.55;;;1.70;;
35324;SDS011;35135;47.510;19.036;2023-07-13T08:04:37;3.58;;;1.60;;
35324;SDS011;35135;47.510;19.036;2023-07-13T08:07:03;3.53;;;1.70;;
35324;SDS011;35135;47.510;19.036;2023-07-13T08:09:29;2.83;;;1.73;;
35324;SDS011;35135;47.510;19.036;2023-07-13T08:11:54;5.22;;;2.28;;
35324;SDS011;35135;47.510;19.036;2023-07-13T08:14:20;4.40;;;2.10;;
35324;SDS011;35135;47.510;19.036;2023-07-13T08:16:46;3.17;;;1.75;;
35324;SDS011;35135;47.510;19.036;2023-07-13T08:19:12;3.10;;;1.60;;
35324;SDS011;35135;47.510;19.036;2023-07-13T08:21:37;5.97;;;2.08;;
35324;SDS011;35135;47.510;19.036;2023-07-13T08:24:03;6.15;;;2.28;;
35324;SDS011;35135;47.510;19.036;2023-07-13T08:26:29;10.00;;;2.15;;
35324;SDS011;35135;47.510;19.036;2023-07-13T08:28:54;4.82;;;2.35;;
35324;SDS011;35135;47.510;19.036;2023-07-13T08:31:20;4.45;;;1.88;;
35324;SDS011;35135;47.510;19.036;2023-07-13T08:33:46;5.38;;;1.92;;
35324;SDS011;35135;47.510;19.036;2023-07-13T08:36:11;3.22;;;1.60;;
35324;SDS011;35135;47.510;19.036;2023-07-13T08:38:37;4.35;;;1.98;;
35324;SDS011;35135;47.510;19.036;2023-07-13T08:41:09;4.93;;;2.22;;
35324;SDS011;35135;47.510;19.036;2023-07-13T08:43:47;4.05;;;2.28;;
35324;SDS011;35135;47.510;19.036;2023-07-13T08:46:24;3.20;;;1.85;;
35324;SDS011;35135;47.510;19.036;2023-07-13T08:48:55;3.00;;;2.38;;
35324;SDS011;35135;47.510;19.036;2023-07-13T08:53:51;5.18;;;2.25;;
35324;SDS011;35135;47.510;19.036;2023-07-13T08:56:23;2.03;;;1.80;;
35324;SDS011;35135;47.510;19.036;2023-07-13T08:58:53;2.50;;;2.00;;
35324;SDS011;35135;47.510;19.036;2023-07-13T09:01:23;2.38;;;1.83;;
35324;SDS011;35135;47.510;19.036;2023-07-13T09:06:30;2.88;;;2.20;;
35324;SDS011;35135;47.510;19.036;2023-07-13T09:09:10;5.93;;;2.42;;
35324;SDS011;35135;47.510;19.036;2023-07-13T09:12:02;5.22;;;2.08;;
35324;SDS011;35135;47.510;19.036;2023-07-13T09:14:45;4.25;;;2.30;;
35324;SDS011;35135;47.510;19.036;2023-07-13T09:17:35;2.65;;;2.00;;
35324;SDS011;35135;47.510;19.036;2023-07-13T09:23:17;5.88;;;2.35;;
35324;SDS011;35135;47.510;19.036;2023-07-13T09:28:19;3.80;;;1.88;;
35324;SDS011;35135;47.510;19.036;2023-07-13T09:33:37;4.88;;;1.90;;
35324;SDS011;35135;47.510;19.036;2023-07-13T09:36:12;3.63;;;2.35;;
35324;SDS011;35135;47.510;19.036;2023-07-13T09:38:42;3.50;;;2.28;;
35324;SDS011;35135;47.510;19.036;2023-07-13T09:44:34;4.70;;;2.22;;
35324;SDS011;35135;47.510;19.036;2023-07-13T09:46:42;3.10;;;2.15;;
35324;SDS011;35135;47.510;19.036;2023-07-13T09:49:11;4.90;;;2.55;;
35324;SDS011;35135;47.510;19.036;2023-07-13T09:51:37;4.72;;;2.33;;
35324;SDS011;35135;47.510;19.036;2023-07-13T09:54:08;3.22;;;2.40;;
35324;SDS011;35135;47.510;19.036;2023-07-13T09:56:45;2.92;;;2.47;;
35324;SDS011;35135;47.510;19.036;2023-07-13T09:59:18;3.78;;;2.50;;
35324;SDS011;35135;47.510;19.036;2023-07-13T10:01:45;5.85;;;2.20;;
35324;SDS011;35135;47.510;19.036;2023-07-13T10:04:13;3.42;;;2.50;;
35324;SDS011;35135;47.510;19.036;2023-07-13T10:06:43;6.40;;;2.92;;
35324;SDS011;35135;47.510;19.036;2023-07-13T10:09:10;4.18;;;2.30;;
35324;SDS011;35135;47.510;19.036;2023-07-13T10:11:40;3.00;;;2.10;;
35324;SDS011;35135;47.510;19.036;2023-07-13T10:14:11;3.80;;;2.20;;
35324;SDS011;35135;47.510;19.036;2023-07-13T10:16:43;6.00;;;2.95;;
35324;SDS011;35135;47.510;19.036;2023-07-13T10:19:15;6.05;;;2.33;;
35324;SDS011;35135;47.510;19.036;2023-07-13T10:21:54;3.58;;;2.10;;
35324;SDS011;35135;47.510;19.036;2023-07-13T10:24:23;4.22;;;2.30;;
35324;SDS011;35135;47.510;19.036;2023-07-13T10:26:57;3.63;;;2.50;;
35324;SDS011;35135;47.510;19.036;2023-07-13T10:30:12;3.63;;;2.00;;
35324;SDS011;35135;47.510;19.036;2023-07-13T10:32:48;3.28;;;1.92;;
35324;SDS011;35135;47.510;19.036;2023-07-13T10:35:15;5.40;;;2.50;;
35324;SDS011;35135;47.510;19.036;2023-07-13T10:38:06;4.22;;;2.53;;
35324;SDS011;35135;47.510;19.036;2023-07-13T10:40:55;3.30;;;2.20;;
35324;SDS011;35135;47.510;19.036;2023-07-13T10:43:26;4.05;;;2.67;;
35324;SDS011;35135;47.510;19.036;2023-07-13T10:45:57;3.05;;;2.00;;
35324;SDS011;35135;47.510;19.036;2023-07-13T10:48:24;6.45;;;2.40;;
35324;SDS011;35135;47.510;19.036;2023-07-13T10:50:51;4.30;;;2.35;;
35324;SDS011;35135;47.510;19.036;2023-07-13T10:53:19;4.57;;;2.30;;
35324;SDS011;35135;47.510;19.036;2023-07-13T10:55:58;5.15;;;2.28;;
35324;SDS011;35135;47.510;19.036;2023-07-13T10:58:40;4.07;;;2.33;;
35324;SDS011;35135;47.510;19.036;2023-07-13T11:09:29;12.50;;;7.47;;
35324;SDS011;35135;47.510;19.036;2023-07-13T11:12:01;22.15;;;15.88;;
35324;SDS011;35135;47.510;19.036;2023-07-13T11:20:31;56.65;;;40.28;;
35324;SDS011;35135;47.510;19.036;2023-07-13T11:25:38;51.78;;;37.20;;
35324;SDS011;35135;47.510;19.036;2023-07-13T11:30:43;46.58;;;32.20;;
35324;SDS011;35135;47.510;19.036;2023-07-13T11:36:06;29.83;;;22.15;;
35324;SDS011;35135;47.510;19.036;2023-07-13T11:38:40;29.90;;;19.80;;
35324;SDS011;35135;47.510;19.036;2023-07-13T11:41:12;17.70;;;12.32;;
35324;SDS011;35135;47.510;19.036;2023-07-13T11:43:53;11.20;;;8.80;;
35324;SDS011;35135;47.510;19.036;2023-07-13T11:46:21;10.43;;;8.10;;
35324;SDS011;35135;47.510;19.036;2023-07-13T11:48:49;9.32;;;5.85;;
35324;SDS011;35135;47.510;19.036;2023-07-13T11:51:26;9.68;;;6.68;;
35324;SDS011;35135;47.510;19.036;2023-07-13T11:53:56;7.70;;;5.82;;
35324;SDS011;35135;47.510;19.036;2023-07-13T11:56:24;8.07;;;5.72;;
35324;SDS011;35135;47.510;19.036;2023-07-13T11:58:51;5.82;;;4.72;;
35324;SDS011;35135;47.510;19.036;2023-07-13T12:01:22;5.57;;;3.97;;
35324;SDS011;35135;47.510;19.036;2023-07-13T12:03:50;5.40;;;3.78;;
35324;SDS011;35135;47.510;19.036;2023-07-13T12:06:27;5.50;;;3.28;;
35324;SDS011;35135;47.510;19.036;2023-07-13T12:08:56;3.53;;;2.70;;
35324;SDS011;35135;47.510;19.036;2023-07-13T12:11:28;4.90;;;3.20;;
35324;SDS011;35135;47.510;19.036;2023-07-13T12:13:54;4.28;;;2.75;;
35324;SDS011;35135;47.510;19.036;2023-07-13T12:16:30;6.30;;;2.75;;
35324;SDS011;35135;47.510;19.036;2023-07-13T12:18:58;4.55;;;2.42;;
35324;SDS011;35135;47.510;19.036;2023-07-13T12:21:32;2.88;;;2.30;;
35324;SDS011;35135;47.510;19.036;2023-07-13T12:24:13;3.97;;;2.45;;
35324;SDS011;35135;47.510;19.036;2023-07-13T12:26:40;2.95;;;2.38;;
35324;SDS011;35135;47.510;19.036;2023-07-13T12:29:06;2.88;;;2.28;;
35324;SDS011;35135;47.510;19.036;2023-07-13T12:31:50;3.78;;;2.58;;
35324;SDS011;35135;47.510;19.036;2023-07-13T12:34:21;3.05;;;2.30;;
35324;SDS011;35135;47.510;19.036;2023-07-13T12:36:50;2.83;;;2.30;;
35324;SDS011;35135;47.510;19.036;2023-07-13T12:39:22;3.92;;;2.20;;
35324;SDS011;35135;47.510;19.036;2023-07-13T12:41:52;2.50;;;2.25;;
35324;SDS011;35135;47.510;19.036;2023-07-13T12:44:22;8.27;;;2.45;;
35324;SDS011;35135;47.510;19.036;2023-07-13T12:47:03;3.22;;;2.22;;
35324;SDS011;35135;47.510;19.036;2023-07-13T12:49:39;2.47;;;1.90;;
35324;SDS011;35135;47.510;19.036;2023-07-13T12:52:10;7.07;;;2.10;;
35324;SDS011;35135;47.510;19.036;2023-07-13T12:54:39;4.22;;;2.15;;
35324;SDS011;35135;47.510;19.036;2023-07-13T12:57:05;2.80;;;2.03;;
35324;SDS011;35135;47.510;19.036;2023-07-13T12:59:37;4.55;;;2.40;;
35324;SDS011;35135;47.510;19.036;2023-07-13T13:02:08;4.80;;;2.55;;
35324;SDS011;35135;47.510;19.036;2023-07-13T13:04:48;5.13;;;2.70;;
35324;SDS011;35135;47.510;19.036;2023-07-13T13:07:14;5.93;;;2.50;;
35324;SDS011;35135;47.510;19.036;2023-07-13T13:09:40;5.70;;;2.50;;
35324;SDS011;35135;47.510;19.036;2023-07-13T13:12:05;7.35;;;2.80;;
35324;SDS011;35135;47.510;19.036;2023-07-13T13:14:32;4.85;;;2.20;;
35324;SDS011;35135;47.510;19.036;2023-07-13T13:16:57;3.25;;;2.47;;
35324;SDS011;35135;47.510;19.036;2023-07-13T13:19:25;2.88;;;2.08;;
35324;SDS011;35135;47.510;19.036;2023-07-13T13:21:53;2.25;;;2.00;;
35324;SDS011;35135;47.510;19.036;2023-07-13T13:24:22;5.30;;;2.67;;
35324;SDS011;35135;47.510;19.036;2023-07-13T13:26:53;4.85;;;2.60;;
35324;SDS011;35135;47.510;19.036;2023-07-13T13:29:22;3.40;;;2.25;;
35324;SDS011;35135;47.510;19.036;2023-07-13T13:31:52;6.63;;;2.33;;
35324;SDS011;35135;47.510;19.036;2023-07-13T13:34:21;7.10;;;2.40;;
35324;SDS011;35135;47.510;19.036;2023-07-13T13:36:51;6.03;;;2.60;;
35324;SDS011;35135;47.510;19.036;2023-07-13T13:39:21;4.47;;;2.45;;
35324;SDS011;35135;47.510;19.036;2023-07-13T13:41:52;2.85;;;2.30;;
35324;SDS011;35135;47.510;19.036;2023-07-13T13:44:19;4.15;;;2.30;;
35324;SDS011;35135;47.510;19.036;2023-07-13T13:46:46;6.30;;;2.28;;
35324;SDS011;35135;47.510;19.036;2023-07-13T13:49:15;3.30;;;2.28;;
35324;SDS011;35135;47.510;19.036;2023-07-13T13:51:43;4.47;;;1.92;;
35324;SDS011;35135;47.510;19.036;2023-07-13T13:54:13;4.57;;;2.47;;
35324;SDS011;35135;47.510;19.036;2023-07-13T13:56:41;3.95;;;2.40;;
35324;SDS011;35135;47.510;19.036;2023-07-13T13:59:11;2.42;;;2.20;;
35324;SDS011;35135;47.510;19.036;2023-07-13T14:01:38;2.30;;;2.00;;
35324;SDS011;35135;47.510;19.036;2023-07-13T14:04:05;2.55;;;1.92;;
35324;SDS011;35135;47.510;19.036;2023-07-13T14:06:32;5.63;;;2.47;;
35324;SDS011;35135;47.510;19.036;2023-07-13T14:08:59;3.78;;;2.38;;
35324;SDS011;35135;47.510;19.036;2023-07-13T14:11:27;2.78;;;2.28;;
35324;SDS011;35135;47.510;19.036;2023-07-13T14:13:54;3.05;;;2.33;;
35324;SDS011;35135;47.510;19.036;2023-07-13T14:16:24;3.58;;;2.15;;
35324;SDS011;35135;47.510;19.036;2023-07-13T14:18:54;5.18;;;2.50;;
35324;SDS011;35135;47.510;19.036;2023-07-13T14:21:23;3.97;;;2.50;;
35324;SDS011;35135;47.510;19.036;2023-07-13T14:23:49;3.83;;;2.42;;
35324;SDS011;35135;47.510;19.036;2023-07-13T14:26:19;3.08;;;2.33;;
35324;SDS011;35135;47.510;19.036;2023-07-13T14:28:51;5.63;;;2.60;;
35324;SDS011;35135;47.510;19.036;2023-07-13T14:31:18;2.72;;;2.38;;
35324;SDS011;35135;47.510;19.036;2023-07-13T14:33:44;3.08;;;2.15;;
35324;SDS011;35135;47.510;19.036;2023-07-13T14:39:14;4.13;;;2.40;;
35324;SDS011;35135;47.510;19.036;2023-07-13T14:41:42;2.90;;;2.22;;
35324;SDS011;35135;47.510;19.036;2023-07-13T14:44:11;4.88;;;2.20;;
35324;SDS011;35135;47.510;19.036;2023-07-13T14:46:37;2.58;;;2.15;;
35324;SDS011;35135;47.510;19.036;2023-07-13T14:49:05;3.00;;;2.25;;
35324;SDS011;35135;47.510;19.036;2023-07-13T14:51:38;3.45;;;2.30;;
35324;SDS011;35135;47.510;19.036;2023-07-13T14:54:04;3.67;;;2.45;;
35324;SDS011;35135;47.510;19.036;2023-07-13T14:56:31;3.75;;;2.25;;
35324;SDS011;35135;47.510;19.036;2023-07-13T14:58:57;3.13;;;2.30;;
35324;SDS011;35135;47.510;19.036;2023-07-13T15:01:23;6.68;;;2.33;;
35324;SDS011;35135;47.510;19.036;2023-07-13T15:03:49;5.32;;;2.33;;
35324;SDS011;35135;47.510;19.036;2023-07-13T15:06:17;2.85;;;2.30;;
35324;SDS011;35135;47.510;19.036;2023-07-13T15:08:44;3.55;;;2.20;;
35324;SDS011;35135;47.510;19.036;2023-07-13T15:11:10;7.72;;;3.60;;
35324;SDS011;35135;47.510;19.036;2023-07-13T15:13:37;43.58;;;24.65;;
35324;SDS011;35135;47.510;19.036;2023-07-13T15:16:24;149.73;;;74.22;;
35324;SDS011;35135;47.510;19.036;2023-07-13T15:18:51;255.48;;;137.43;;
35324;SDS011;35135;47.510;19.036;2023-07-13T15:21:19;220.00;;;114.28;;